createdAt,value
2023-03-22T00:00:39.959Z,2.95
2023-03-22T00:03:10.837Z,4.35
2023-03-22T00:05:42.586Z,4.35
2023-03-22T00:08:11.215Z,4.47
2023-03-22T00:10:46.596Z,4.95
2023-03-22T00:13:16.278Z,4.13
2023-03-22T00:15:48.576Z,4.07
2023-03-22T00:18:17.422Z,3.15
2023-03-22T00:20:50.123Z,4.07
2023-03-22T00:23:17.306Z,2.70
2023-03-22T00:25:45.436Z,4.93
2023-03-22T00:28:17.129Z,3.67
2023-03-22T00:30:51.252Z,3.42
2023-03-22T00:33:19.066Z,5.07
2023-03-22T00:35:52.512Z,5.88
2023-03-22T00:38:21.905Z,3.65
2023-03-22T00:40:50.865Z,7.88
2023-03-22T00:43:17.980Z,2.17
2023-03-22T00:45:44.808Z,6.73
2023-03-22T00:48:13.687Z,3.72
2023-03-22T00:50:42.979Z,4.20
2023-03-22T00:53:11.092Z,6.57
2023-03-22T00:55:37.685Z,5.40
2023-03-22T00:58:04.375Z,3.33
2023-03-22T01:00:33.632Z,2.80
2023-03-22T01:03:07.170Z,2.22
2023-03-22T01:05:35.120Z,4.43
2023-03-22T01:08:08.983Z,5.93
2023-03-22T01:10:38.061Z,5.73
2023-03-22T01:13:07.374Z,5.30
2023-03-22T01:15:34.353Z,4.38
2023-03-22T01:18:09.047Z,5.32
2023-03-22T01:20:36.842Z,4.88
2023-03-22T01:23:06.731Z,5.67
2023-03-22T01:25:33.542Z,5.90
2023-03-22T01:28:02.675Z,2.15
2023-03-22T01:30:30.103Z,6.40
2023-03-22T01:33:18.018Z,4.05
2023-03-22T01:35:51.437Z,3.80
2023-03-22T01:38:18.299Z,4.90
2023-03-22T01:40:44.782Z,4.95
2023-03-22T01:43:17.003Z,3.97
2023-03-22T01:45:48.298Z,3.20
2023-03-22T01:48:17.687Z,5.40
2023-03-22T01:50:56.376Z,4.90
2023-03-22T01:53:27.198Z,4.38
2023-03-22T01:55:59.613Z,2.80
2023-03-22T01:58:26.785Z,4.47
2023-03-22T02:00:55.364Z,4.37
2023-03-22T02:03:31.056Z,5.78
2023-03-22T02:06:00.070Z,4.50
2023-03-22T02:08:29.279Z,3.28
2023-03-22T02:10:56.022Z,2.22
2023-03-22T02:13:32.627Z,4.20
2023-03-22T02:16:09.988Z,4.68
2023-03-22T02:18:45.716Z,4.43
2023-03-22T02:21:33.047Z,2.70
2023-03-22T02:24:27.971Z,5.10
2023-03-22T02:27:19.960Z,3.40
2023-03-22T02:29:54.731Z,2.78
2023-03-22T02:32:38.890Z,2.83
2023-03-22T02:35:14.271Z,2.70
2023-03-22T02:38:06.094Z,4.32
2023-03-22T02:40:44.137Z,3.60
2023-03-22T02:43:38.978Z,3.72
2023-03-22T02:46:10.561Z,5.88
2023-03-22T02:48:47.265Z,5.57
2023-03-22T02:51:21.435Z,4.55
2023-03-22T02:54:04.376Z,4.73
2023-03-22T02:56:41.217Z,5.28
2023-03-22T02:59:12.520Z,5.93
2023-03-22T03:01:45.647Z,7.22
2023-03-22T03:04:19.562Z,4.95
2023-03-22T03:06:49.018Z,6.17
2023-03-22T03:09:19.328Z,4.68
2023-03-22T03:11:49.389Z,8.38
2023-03-22T03:14:28.070Z,7.00
2023-03-22T03:17:06.237Z,9.45
2023-03-22T03:19:48.710Z,10.47
2023-03-22T03:22:27.397Z,7.47
2023-03-22T03:25:06.846Z,7.50
2023-03-22T03:27:44.250Z,9.48
2023-03-22T03:30:22.575Z,7.43
2023-03-22T03:33:01.638Z,9.90
2023-03-22T03:35:37.712Z,9.52
2023-03-22T03:38:10.800Z,9.35
2023-03-22T03:40:46.010Z,9.85
2023-03-22T03:43:15.001Z,10.02
2023-03-22T03:45:52.150Z,9.00
2023-03-22T03:48:31.882Z,9.27
2023-03-22T03:51:01.163Z,9.27
2023-03-22T03:53:29.293Z,10.05
2023-03-22T03:55:59.006Z,9.48
2023-03-22T03:58:25.692Z,11.50
2023-03-22T04:00:52.497Z,10.50
2023-03-22T04:03:20.459Z,7.93
2023-03-22T04:05:47.227Z,9.63
2023-03-22T04:08:14.084Z,11.18
2023-03-22T04:10:42.037Z,9.37
2023-03-22T04:13:09.004Z,11.95
2023-03-22T04:15:39.108Z,9.73
2023-03-22T04:18:07.121Z,9.77
2023-03-22T04:20:34.765Z,11.40
2023-03-22T04:23:03.986Z,8.87
2023-03-22T04:25:31.709Z,10.25
2023-03-22T04:28:00.714Z,10.45
2023-03-22T04:30:27.581Z,9.02
2023-03-22T04:32:54.951Z,11.38
2023-03-22T04:35:21.702Z,8.43
2023-03-22T04:37:51.225Z,9.13
2023-03-22T04:40:17.966Z,8.32
2023-03-22T04:42:44.835Z,9.07
2023-03-22T04:45:12.846Z,8.95
2023-03-22T04:47:40.357Z,8.80
2023-03-22T04:50:13.013Z,9.00
2023-03-22T04:52:41.679Z,7.85
2023-03-22T04:55:08.827Z,9.40
2023-03-22T04:57:36.732Z,9.82
2023-03-22T05:00:08.385Z,7.70
2023-03-22T05:02:40.005Z,12.30
2023-03-22T05:05:07.844Z,9.85
2023-03-22T05:07:37.381Z,12.27
2023-03-22T05:10:04.440Z,9.45
2023-03-22T05:12:31.258Z,12.37
2023-03-22T05:15:00.943Z,11.57
2023-03-22T05:17:30.505Z,7.47
2023-03-22T05:19:57.117Z,9.95
2023-03-22T05:22:23.763Z,10.68
2023-03-22T05:24:50.342Z,7.83
2023-03-22T05:27:17.175Z,7.72
2023-03-22T05:29:45.180Z,7.63
2023-03-22T05:32:12.173Z,8.60
2023-03-22T05:34:38.972Z,7.80
2023-03-22T05:37:05.694Z,7.53
2023-03-22T05:39:33.476Z,8.00
2023-03-22T05:42:01.701Z,6.15
2023-03-22T05:44:29.624Z,6.55
2023-03-22T05:46:56.274Z,6.93
2023-03-22T05:49:23.946Z,7.00
2023-03-22T05:51:58.650Z,6.40
2023-03-22T05:54:25.357Z,7.65
2023-03-22T05:56:53.127Z,6.40
2023-03-22T05:59:21.727Z,7.70
2023-03-22T06:01:48.394Z,7.30
2023-03-22T06:04:16.187Z,5.13
2023-03-22T06:06:43.069Z,8.70
2023-03-22T06:09:16.760Z,5.55
2023-03-22T06:11:43.835Z,7.53
2023-03-22T06:14:10.811Z,9.70
2023-03-22T06:16:37.577Z,5.05
2023-03-22T06:19:04.384Z,5.10
2023-03-22T06:21:31.053Z,6.55
2023-03-22T06:23:58.840Z,6.60
2023-03-22T06:26:31.780Z,7.07
2023-03-22T06:29:00.071Z,5.45
2023-03-22T06:31:26.808Z,6.55
2023-03-22T06:33:56.114Z,7.40
2023-03-22T06:36:22.810Z,6.40
2023-03-22T06:38:51.190Z,5.93
2023-03-22T06:41:20.014Z,5.50
2023-03-22T06:43:50.028Z,6.55
2023-03-22T06:46:17.223Z,6.50
2023-03-22T06:48:45.268Z,5.82
2023-03-22T06:51:13.905Z,7.40
2023-03-22T06:53:40.684Z,4.40
2023-03-22T06:56:09.978Z,5.43
2023-03-22T06:58:37.366Z,6.47
2023-03-22T07:01:04.166Z,6.72
2023-03-22T07:03:39.418Z,8.57
2023-03-22T07:06:13.034Z,6.70
2023-03-22T07:08:40.286Z,6.15
2023-03-22T07:11:07.416Z,6.10
2023-03-22T07:13:34.178Z,5.68
2023-03-22T07:16:02.567Z,7.47
2023-03-22T07:18:30.516Z,5.32
2023-03-22T07:20:57.287Z,6.03
2023-03-22T07:23:24.213Z,3.80
2023-03-22T07:25:52.087Z,3.22
2023-03-22T07:28:22.547Z,4.10
2023-03-22T07:30:49.225Z,8.38
2023-03-22T07:35:57.792Z,4.68
2023-03-22T07:38:24.413Z,5.55
2023-03-22T07:40:54.724Z,4.83
2023-03-22T07:43:22.651Z,5.20
2023-03-22T07:45:50.854Z,3.40
2023-03-22T07:48:20.653Z,3.92
2023-03-22T07:50:48.164Z,4.82
2023-03-22T07:53:14.804Z,5.03
2023-03-22T07:55:44.393Z,4.30
2023-03-22T07:58:12.117Z,5.43
2023-03-22T08:00:38.978Z,6.03
2023-03-22T08:03:06.007Z,6.30
2023-03-22T08:05:32.886Z,6.10
2023-03-22T08:08:01.493Z,4.38
2023-03-22T08:10:28.222Z,6.20
2023-03-22T08:12:54.958Z,5.18
2023-03-22T08:15:22.711Z,6.18
2023-03-22T08:17:49.918Z,3.00
2023-03-22T08:20:18.448Z,4.75
2023-03-22T08:22:45.655Z,7.43
2023-03-22T08:25:12.510Z,5.70
2023-03-22T08:27:39.145Z,5.45
2023-03-22T08:30:06.359Z,4.33
2023-03-22T08:32:34.449Z,7.75
2023-03-22T08:35:01.028Z,5.65
2023-03-22T08:37:27.879Z,4.65
2023-03-22T08:39:54.421Z,6.95
2023-03-22T08:42:22.420Z,6.83
2023-03-22T08:44:58.010Z,8.98
2023-03-22T08:47:24.635Z,6.80
2023-03-22T08:49:58.412Z,5.40
2023-03-22T08:52:26.805Z,6.43
2023-03-22T08:54:53.516Z,5.93
2023-03-22T08:57:22.062Z,4.90
2023-03-22T08:59:48.822Z,4.10
2023-03-22T09:02:15.696Z,6.47
2023-03-22T09:04:43.191Z,4.70
2023-03-22T09:07:09.979Z,5.73
2023-03-22T09:09:37.036Z,5.85
2023-03-22T09:12:03.782Z,4.93
2023-03-22T09:14:30.283Z,5.85
2023-03-22T09:17:01.760Z,6.60
2023-03-22T09:19:28.925Z,3.50
2023-03-22T09:21:58.438Z,5.78
2023-03-22T09:24:26.322Z,5.20
2023-03-22T09:26:52.898Z,4.13
2023-03-22T09:29:19.784Z,6.80
2023-03-22T09:31:48.928Z,5.30
2023-03-22T09:34:15.812Z,5.70
2023-03-22T09:36:42.525Z,3.25
2023-03-22T09:39:10.142Z,4.55
2023-03-22T09:41:38.676Z,6.45
2023-03-22T09:44:09.460Z,5.30
2023-03-22T09:46:40.709Z,6.95
2023-03-22T09:49:16.452Z,5.03
2023-03-22T09:51:47.613Z,7.00
2023-03-22T09:54:22.322Z,4.65
2023-03-22T09:56:58.324Z,5.17
2023-03-22T09:59:28.067Z,7.20
2023-03-22T10:02:21.869Z,8.52
2023-03-22T10:05:03.339Z,7.53
2023-03-22T10:07:41.775Z,4.75
2023-03-22T10:10:20.477Z,4.93
2023-03-22T10:13:13.913Z,5.63
2023-03-22T10:15:53.619Z,5.28
2023-03-22T10:18:24.964Z,3.92
2023-03-22T10:21:01.447Z,3.10
2023-03-22T10:23:40.890Z,7.43
2023-03-22T10:26:25.549Z,7.03
2023-03-22T10:29:01.564Z,5.72
2023-03-22T10:31:31.306Z,6.00
2023-03-22T10:34:03.690Z,5.80
2023-03-22T10:36:35.137Z,4.93
2023-03-22T10:39:16.700Z,5.47
2023-03-22T10:41:46.470Z,5.95
2023-03-22T10:44:19.559Z,6.47
2023-03-22T10:46:49.192Z,3.55
2023-03-22T10:49:26.033Z,4.97
2023-03-22T10:52:05.005Z,6.70
2023-03-22T10:54:32.580Z,4.75
2023-03-22T10:56:59.198Z,3.75
2023-03-22T10:59:45.299Z,4.30
2023-03-22T11:02:19.225Z,5.87
2023-03-22T11:04:49.273Z,3.97
2023-03-22T11:07:28.962Z,6.55
2023-03-22T11:10:11.234Z,3.75
2023-03-22T11:12:42.289Z,6.03
2023-03-22T11:15:28.726Z,4.07
2023-03-22T11:18:06.251Z,6.93
2023-03-22T11:20:34.933Z,5.72
2023-03-22T11:23:05.240Z,4.68
2023-03-22T11:25:35.761Z,6.63
2023-03-22T11:28:05.429Z,5.50
2023-03-22T11:30:35.622Z,5.20
2023-03-22T11:33:17.666Z,4.65
2023-03-22T11:35:47.548Z,4.90
2023-03-22T11:38:34.021Z,3.38
2023-03-22T11:41:03.281Z,4.57
2023-03-22T11:43:43.889Z,4.78
2023-03-22T11:46:12.681Z,4.90
2023-03-22T11:48:42.407Z,7.57
2023-03-22T11:51:18.977Z,5.60
2023-03-22T11:53:48.024Z,4.23
2023-03-22T11:56:22.075Z,5.38
2023-03-22T11:58:59.695Z,4.60
2023-03-22T12:01:37.358Z,2.17
2023-03-22T12:04:14.103Z,3.10
2023-03-22T12:06:47.745Z,3.57
2023-03-22T12:09:41.370Z,3.40
2023-03-22T12:12:17.866Z,2.58
2023-03-22T12:14:54.932Z,5.32
2023-03-22T12:17:28.644Z,4.80
2023-03-22T12:22:59.617Z,3.03
2023-03-22T12:25:32.242Z,4.13
2023-03-22T12:28:06.857Z,6.30
2023-03-22T12:30:44.770Z,4.25
2023-03-22T12:33:27.756Z,3.20
2023-03-22T12:35:59.036Z,5.72
2023-03-22T12:38:30.453Z,4.05
2023-03-22T12:46:45.284Z,1.87
2023-03-22T12:49:25.674Z,3.50
2023-03-22T12:51:56.419Z,3.63
2023-03-22T12:54:25.818Z,4.60
2023-03-22T12:56:55.500Z,4.68
2023-03-22T12:59:26.830Z,5.97
2023-03-22T13:01:57.940Z,6.07
2023-03-22T13:04:31.912Z,2.63
2023-03-22T13:07:16.622Z,3.47
2023-03-22T13:09:47.247Z,4.18
2023-03-22T13:12:17.034Z,7.57
2023-03-22T13:14:51.144Z,3.67
2023-03-22T13:17:27.730Z,2.70
2023-03-22T13:19:59.593Z,3.22
2023-03-22T13:22:48.150Z,4.18
2023-03-22T13:25:39.752Z,5.60
2023-03-22T13:28:25.532Z,4.25
2023-03-22T13:30:56.399Z,2.55
2023-03-22T13:33:29.791Z,4.78
2023-03-22T13:35:59.502Z,3.85
2023-03-22T13:38:30.942Z,3.60
2023-03-22T13:41:07.231Z,6.22
2023-03-22T13:43:51.525Z,4.40
2023-03-22T13:46:20.123Z,3.20
2023-03-22T13:49:17.411Z,2.10
2023-03-22T13:51:45.380Z,4.67
2023-03-22T13:54:15.480Z,4.40
2023-03-22T13:56:45.487Z,3.13
2023-03-22T13:59:31.027Z,6.15
2023-03-22T14:02:24.013Z,4.72
2023-03-22T14:05:01.473Z,5.20
2023-03-22T14:07:41.729Z,4.85
2023-03-22T14:10:35.492Z,3.10
2023-03-22T14:13:16.611Z,4.85
2023-03-22T14:15:51.455Z,2.88
2023-03-22T14:18:27.897Z,5.30
2023-03-22T14:21:01.201Z,4.72
